Time;durP1;ratioP1;P1;durP2;ratioP2;P2;SDS_P1;SDS_P2;PMS_P1;PMS_P2;Temp;Humidity;BMP_temperature;BMP_pressure;BME280_temperature;BME280_humidity;BME280_pressure;Samples;Min_cycle;Max_cycle;Signal;HPM_P1;HPM_P2
2023/05/01 00:00:04;;;;;;;8.90;5.20;;;;;;;5.90;100.00;102160.06;5016039;28;20331;-68
2023/05/01 00:02:30;;;;;;;11.23;5.97;;;;;;;5.89;100.00;102148.16;5019607;28;20199;-68
2023/05/01 00:04:56;;;;;;;11.57;5.87;;;;;;;5.91;100.00;102140.63;5025635;28;20201;-69
2023/05/01 00:07:23;;;;;;;7.27;4.73;;;;;;;5.88;100.00;102143.88;5019743;28;20209;-70
2023/05/01 00:09:50;;;;;;;9.63;4.97;;;;;;;5.73;100.00;102145.47;5020981;28;20253;-68
2023/05/01 00:12:16;;;;;;;7.27;4.77;;;;;;;5.82;100.00;102142.63;5007574;28;20245;-69
2023/05/01 00:14:41;;;;;;;6.93;4.90;;;;;;;5.78;100.00;102141.53;5016954;28;20817;-69
2023/05/01 00:17:06;;;;;;;9.30;4.90;;;;;;;5.75;100.00;102141.34;5023696;28;20199;-66
2023/05/01 00:19:32;;;;;;;8.57;5.17;;;;;;;5.69;100.00;102140.09;5028002;28;20233;-68
2023/05/01 00:21:57;;;;;;;9.53;5.57;;;;;;;5.62;100.00;102133.78;5007188;28;20187;-68
2023/05/01 00:24:23;;;;;;;9.07;5.43;;;;;;;5.61;100.00;102128.63;5023674;28;20627;-69
2023/05/01 00:26:48;;;;;;;8.93;4.83;;;;;;;5.56;100.00;102137.63;5023239;28;20730;-69
2023/05/01 00:29:14;;;;;;;9.30;5.03;;;;;;;5.50;100.00;102128.00;5026498;28;20206;-69
2023/05/01 00:31:41;;;;;;;6.50;4.40;;;;;;;5.41;100.00;102129.09;5009883;28;20296;-69
2023/05/01 00:34:06;;;;;;;9.30;5.13;;;;;;;5.47;100.00;102117.63;5026921;28;20206;-70
2023/05/01 00:36:32;;;;;;;7.17;5.03;;;;;;;5.45;100.00;102115.78;5022304;28;20213;-69
2023/05/01 00:38:57;;;;;;;8.40;5.10;;;;;;;5.43;100.00;102120.78;5022602;28;20186;-69
2023/05/01 00:41:23;;;;;;;7.10;4.97;;;;;;;5.34;100.00;102122.75;5021242;28;20230;-69
2023/05/01 00:43:48;;;;;;;4.63;4.13;;;;;;;5.20;100.00;102121.03;5006504;28;20195;-69
2023/05/01 00:46:14;;;;;;;8.07;4.90;;;;;;;5.28;100.00;102117.31;5020949;28;20201;-68
2023/05/01 00:48:39;;;;;;;11.07;5.13;;;;;;;5.31;100.00;102112.44;5009389;28;20318;-68
2023/05/01 00:51:06;;;;;;;9.20;4.70;;;;;;;5.24;100.00;102109.41;5025832;28;20238;-69
2023/05/01 00:53:33;;;;;;;8.97;4.80;;;;;;;5.28;100.00;102108.81;5017813;28;20229;-68
2023/05/01 00:56:00;;;;;;;13.63;5.23;;;;;;;5.21;100.00;102104.16;5020772;28;20194;-68
2023/05/01 00:58:25;;;;;;;9.30;4.70;;;;;;;5.20;100.00;102107.50;5022970;28;20203;-69
2023/05/01 01:00:51;;;;;;;8.73;4.50;;;;;;;5.19;100.00;102096.44;5021066;28;20220;-68
2023/05/01 01:03:17;;;;;;;8.30;4.50;;;;;;;5.09;100.00;102100.88;5023623;28;20203;-67
2023/05/01 01:05:52;;;;;;;7.93;4.40;;;;;;;5.03;100.00;102103.94;5008612;28;20366;-67
2023/05/01 01:08:38;;;;;;;8.47;4.43;;;;;;;5.08;100.00;102104.19;5008981;28;20198;-68
2023/05/01 01:11:21;;;;;;;8.30;4.30;;;;;;;5.00;100.00;102106.28;5002806;28;20256;-67
2023/05/01 01:13:57;;;;;;;6.80;4.53;;;;;;;4.97;100.00;102095.06;5003810;28;20296;-68
2023/05/01 01:16:50;;;;;;;7.10;4.73;;;;;;;4.91;100.00;102105.69;5001904;28;21002;-69
2023/05/01 01:19:19;;;;;;;6.43;4.47;;;;;;;4.88;100.00;102107.19;4998115;28;20245;-67
2023/05/01 01:21:46;;;;;;;7.77;5.03;;;;;;;4.87;100.00;102105.41;5005391;28;20194;-68
2023/05/01 01:24:21;;;;;;;9.37;4.80;;;;;;;4.83;100.00;102104.34;5018346;28;20236;-69
2023/05/01 01:26:46;;;;;;;9.00;4.40;;;;;;;4.84;100.00;102092.53;5021902;28;20196;-70
2023/05/01 01:29:32;;;;;;;7.57;4.93;;;;;;;4.75;100.00;102102.13;5016937;28;20210;-69
2023/05/01 01:32:19;;;;;;;7.73;4.37;;;;;;;4.81;100.00;102089.81;5024402;28;20582;-69
2023/05/01 01:35:02;;;;;;;6.57;4.37;;;;;;;4.72;100.00;102090.13;5003339;28;20194;-69
2023/05/01 01:37:34;;;;;;;6.77;4.63;;;;;;;4.74;100.00;102091.09;5004665;28;20254;-68
2023/05/01 01:40:06;;;;;;;8.27;4.33;;;;;;;4.73;100.00;102088.44;5002961;28;20222;-69
2023/05/01 01:42:54;;;;;;;9.07;5.03;;;;;;;4.72;100.00;102087.59;5000404;28;20206;-68
2023/05/01 01:45:29;;;;;;;10.17;5.07;;;;;;;4.72;100.00;102079.09;5026261;28;20195;-69
2023/05/01 01:47:56;;;;;;;9.87;4.73;;;;;;;4.70;100.00;102085.75;5009539;28;20207;-67
2023/05/01 01:50:25;;;;;;;8.97;4.80;;;;;;;4.69;100.00;102081.44;5007370;28;20241;-67
2023/05/01 01:52:53;;;;;;;9.67;4.80;;;;;;;4.61;100.00;102080.09;5018667;28;20569;-69
2023/05/01 01:55:26;;;;;;;7.20;4.40;;;;;;;4.58;100.00;102075.69;5020699;28;20287;-69
2023/05/01 01:57:53;;;;;;;7.43;5.13;;;;;;;4.56;100.00;102073.84;5002260;28;20281;-68
2023/05/01 02:00:19;;;;;;;8.20;4.87;;;;;;;4.54;100.00;102072.88;5007595;28;20753;-68
2023/05/01 02:02:48;;;;;;;5.83;4.57;;;;;;;4.47;100.00;102071.59;5001848;28;20664;-69
2023/05/01 02:05:15;;;;;;;7.30;4.47;;;;;;;4.46;100.00;102071.53;5001930;28;21052;-69
2023/05/01 02:07:44;;;;;;;8.03;5.10;;;;;;;4.43;100.00;102064.59;4999791;28;20191;-68
2023/05/01 02:10:12;;;;;;;8.80;5.07;;;;;;;4.48;100.00;102065.78;4999976;28;20309;-68
2023/05/01 02:12:39;;;;;;;6.60;4.60;;;;;;;4.48;100.00;102063.22;5006158;28;20219;-67
2023/05/01 02:15:08;;;;;;;8.50;4.83;;;;;;;4.48;100.00;102058.16;5021206;28;20198;-68
2023/05/01 02:17:35;;;;;;;7.57;4.60;;;;;;;4.31;100.00;102066.34;5023798;28;20281;-69
2023/05/01 02:20:03;;;;;;;10.20;5.50;;;;;;;4.41;100.00;102056.00;5013230;28;20222;-67
2023/05/01 02:22:30;;;;;;;7.80;4.50;;;;;;;4.40;100.00;102060.97;5020895;28;20191;-68
2023/05/01 02:24:57;;;;;;;7.27;5.23;;;;;;;4.42;100.00;102051.81;5003369;28;20198;-68
2023/05/01 02:27:29;;;;;;;6.37;4.40;;;;;;;4.32;100.00;102047.81;5003594;28;20194;-69
2023/05/01 02:29:56;;;;;;;6.57;5.10;;;;;;;4.36;100.00;102048.88;5025500;28;20241;-67
2023/05/01 02:32:22;;;;;;;7.40;5.13;;;;;;;4.30;100.00;102045.97;5007161;28;20210;-67
2023/05/01 02:34:48;;;;;;;8.13;4.40;;;;;;;4.32;100.00;102040.22;5005692;28;20197;-68
2023/05/01 02:37:14;;;;;;;6.80;4.37;;;;;;;4.26;100.00;102042.38;5023060;28;20194;-68
2023/05/01 02:39:41;;;;;;;6.57;4.33;;;;;;;4.22;100.00;102044.59;5018824;28;20209;-69
2023/05/01 02:42:08;;;;;;;7.93;4.97;;;;;;;4.18;100.00;102042.69;5007579;28;20194;-68
2023/05/01 02:44:45;;;;;;;11.00;5.47;;;;;;;4.16;100.00;102034.09;5025109;28;20202;-68
2023/05/01 02:47:16;;;;;;;7.47;4.30;;;;;;;4.15;100.00;102033.19;5010356;28;20221;-69
2023/05/01 02:49:46;;;;;;;7.33;4.57;;;;;;;4.14;100.00;102031.44;5024623;28;20764;-68
2023/05/01 02:52:17;;;;;;;8.30;4.73;;;;;;;4.05;100.00;102020.72;5014046;28;20253;-68
2023/05/01 02:54:45;;;;;;;7.40;5.00;;;;;;;4.09;100.00;102025.22;5011384;28;20277;-69
2023/05/01 02:57:11;;;;;;;8.37;5.10;;;;;;;4.09;100.00;102019.28;5012067;28;20642;-67
2023/05/01 02:59:37;;;;;;;8.93;4.77;;;;;;;4.02;100.00;102024.72;5010082;28;20214;-68
2023/05/01 03:02:03;;;;;;;7.50;4.60;;;;;;;4.02;100.00;102019.66;5019331;28;20213;-68
2023/05/01 03:04:28;;;;;;;5.87;4.20;;;;;;;4.00;100.00;102011.94;5025424;28;20198;-69
2023/05/01 03:06:54;;;;;;;8.80;4.77;;;;;;;3.91;100.00;102013.91;5016214;28;20838;-69
2023/05/01 03:09:20;;;;;;;9.53;4.97;;;;;;;3.81;100.00;102018.25;5013484;28;20250;-68
2023/05/01 03:11:46;;;;;;;7.17;4.30;;;;;;;3.85;100.00;102000.84;5010676;28;20214;-69
2023/05/01 03:14:18;;;;;;;8.43;5.13;;;;;;;3.82;100.00;102000.63;5002756;28;20191;-69
2023/05/01 03:16:43;;;;;;;7.57;5.27;;;;;;;3.81;100.00;101998.88;5009179;28;20198;-69
2023/05/01 03:19:10;;;;;;;6.60;4.67;;;;;;;3.85;100.00;101997.41;5027899;28;20301;-68
2023/05/01 03:21:35;;;;;;;6.17;4.57;;;;;;;3.83;100.00;102002.41;5012914;28;20214;-69
2023/05/01 03:24:02;;;;;;;7.53;4.10;;;;;;;3.86;100.00;102000.06;5022855;28;20238;-68
2023/05/01 03:26:28;;;;;;;9.30;5.37;;;;;;;3.83;100.00;101997.34;5012766;28;20337;-69
2023/05/01 03:28:54;;;;;;;6.60;4.53;;;;;;;3.86;100.00;101989.94;5014438;28;20201;-69
2023/05/01 03:31:20;;;;;;;10.90;4.63;;;;;;;3.83;100.00;101992.28;5025042;28;20233;-68
2023/05/01 03:33:46;;;;;;;7.53;4.53;;;;;;;3.81;100.00;101998.88;5013062;28;20191;-68
2023/05/01 03:36:13;;;;;;;9.47;4.73;;;;;;;3.73;100.00;101989.06;5010118;28;20310;-69
2023/05/01 03:38:38;;;;;;;9.30;4.80;;;;;;;3.70;100.00;101987.19;5010058;28;20743;-67
2023/05/01 03:41:24;;;;;;;6.67;4.63;;;;;;;3.73;100.00;101982.31;5025685;28;20228;-67
2023/05/01 03:44:15;;;;;;;9.60;4.70;;;;;;;3.74;100.00;101980.66;5016966;28;20211;-69
2023/05/01 03:46:43;;;;;;;7.63;4.73;;;;;;;3.73;100.00;101979.78;5011255;28;20559;-67
2023/05/01 03:49:14;;;;;;;9.80;4.83;;;;;;;3.66;100.00;101974.22;5021158;28;20214;-68
2023/05/01 03:51:45;;;;;;;7.77;4.50;;;;;;;3.66;100.00;101974.22;5023639;28;20218;-68
2023/05/01 03:54:11;;;;;;;6.83;4.47;;;;;;;3.57;100.00;101969.47;5002688;28;20210;-67
2023/05/01 03:56:57;;;;;;;7.43;4.90;;;;;;;3.64;100.00;101971.59;5004447;28;20285;-67
2023/05/01 03:59:23;;;;;;;7.43;4.83;;;;;;;3.66;100.00;101972.59;5022400;28;20297;-68
2023/05/01 04:01:49;;;;;;;6.77;4.33;;;;;;;3.67;100.00;101968.38;5009218;28;20671;-68
2023/05/01 04:04:15;;;;;;;7.53;5.03;;;;;;;3.64;100.00;101960.59;5009203;28;20202;-69
2023/05/01 04:06:43;;;;;;;7.83;4.67;;;;;;;3.66;100.00;101956.50;5010918;28;20573;-69
2023/05/01 04:09:09;;;;;;;5.83;4.50;;;;;;;3.63;100.00;101959.72;5005325;28;20215;-68
2023/05/01 04:11:35;;;;;;;7.67;4.83;;;;;;;3.67;100.00;101959.13;5004872;28;20242;-68
2023/05/01 04:14:00;;;;;;;8.10;4.10;;;;;;;3.69;100.00;101955.03;5022173;28;20194;-68
2023/05/01 04:16:26;;;;;;;5.60;4.07;;;;;;;3.75;100.00;101957.97;5003391;28;20202;-69
2023/05/01 04:18:51;;;;;;;7.37;4.90;;;;;;;3.80;100.00;101943.97;5006552;28;20806;-67
2023/05/01 04:21:17;;;;;;;7.43;5.00;;;;;;;3.79;100.00;101943.84;4987360;28;20211;-68
2023/05/01 04:23:44;;;;;;;11.47;4.90;;;;;;;3.84;100.00;101933.25;5025066;28;20640;-68
2023/05/01 04:26:10;;;;;;;7.70;5.33;;;;;;;3.91;100.00;101932.84;5006393;28;20194;-68
2023/05/01 04:28:35;;;;;;;9.27;5.27;;;;;;;4.00;100.00;101930.88;5005214;28;20263;-69
2023/05/01 04:31:02;;;;;;;8.90;5.93;;;;;;;4.06;100.00;101936.34;5025143;28;20214;-68
2023/05/01 04:33:28;;;;;;;10.00;6.20;;;;;;;4.14;100.00;101941.91;5025803;28;20211;-68
2023/05/01 04:35:53;;;;;;;10.40;5.90;;;;;;;4.23;100.00;101932.31;5006396;28;20202;-68
2023/05/01 04:38:19;;;;;;;10.13;6.07;;;;;;;4.28;100.00;101929.28;5021831;28;20221;-68
2023/05/01 04:40:45;;;;;;;10.23;5.20;;;;;;;4.45;100.00;101921.03;5009794;28;20207;-68
2023/05/01 04:43:10;;;;;;;7.50;4.53;;;;;;;4.70;100.00;101921.72;5011764;28;20767;-69
2023/05/01 04:45:39;;;;;;;7.73;4.57;;;;;;;4.82;100.00;101924.13;5022234;28;20198;-68
2023/05/01 04:48:05;;;;;;;10.70;4.70;;;;;;;4.94;100.00;101918.13;5014893;28;20178;-68
2023/05/01 04:50:31;;;;;;;10.37;5.07;;;;;;;5.04;100.00;101914.44;5027763;28;20443;-67
2023/05/01 04:52:58;;;;;;;6.50;4.47;;;;;;;5.07;100.00;101912.97;5029474;28;20229;-68
2023/05/01 04:55:23;;;;;;;7.27;4.67;;;;;;;5.19;100.00;101915.31;5023059;28;20242;-69
2023/05/01 04:58:03;;;;;;;8.23;4.30;;;;;;;5.39;100.00;101912.28;5011824;28;20194;-68
2023/05/01 05:00:29;;;;;;;8.80;4.50;;;;;;;5.54;100.00;101908.97;5024644;28;20228;-69
2023/05/01 05:02:56;;;;;;;7.97;4.43;;;;;;;5.65;100.00;101912.06;5010868;28;20218;-69
2023/05/01 05:05:22;;;;;;;6.97;4.67;;;;;;;5.77;100.00;101911.13;5026301;28;20246;-69
2023/05/01 05:07:48;;;;;;;8.37;4.40;;;;;;;5.87;100.00;101913.41;5008458;28;20635;-68
2023/05/01 05:10:32;;;;;;;9.87;4.47;;;;;;;5.98;100.00;101906.38;5023157;28;20594;-69
2023/05/01 05:13:12;;;;;;;7.50;4.67;;;;;;;6.17;100.00;101909.97;5010241;28;20221;-69
2023/05/01 05:15:38;;;;;;;9.50;4.10;;;;;;;6.31;100.00;101916.66;5007387;28;20289;-69
2023/05/01 05:18:04;;;;;;;9.03;4.20;;;;;;;6.49;100.00;101912.56;5008565;28;20237;-69
2023/05/01 05:20:31;;;;;;;6.17;3.70;;;;;;;6.65;100.00;101907.47;5010773;28;20260;-69
2023/05/01 05:22:56;;;;;;;8.17;4.30;;;;;;;6.74;100.00;101900.31;5007794;28;20187;-69
2023/05/01 05:25:23;;;;;;;8.87;4.00;;;;;;;6.86;100.00;101892.44;5001333;28;20280;-67
2023/05/01 05:27:49;;;;;;;6.87;3.93;;;;;;;6.94;100.00;101899.66;5004186;28;20326;-69
2023/05/01 05:30:15;;;;;;;5.80;3.87;;;;;;;7.09;100.00;101889.38;5008404;28;20222;-69
2023/05/01 05:32:41;;;;;;;7.27;3.83;;;;;;;7.21;100.00;101870.47;5009163;28;20865;-69
2023/05/01 05:35:07;;;;;;;7.23;3.97;;;;;;;7.29;100.00;101864.09;5028006;28;20204;-69
2023/05/01 05:37:32;;;;;;;7.77;3.97;;;;;;;7.29;100.00;101856.44;5026088;28;20198;-69
2023/05/01 05:39:58;;;;;;;7.13;3.70;;;;;;;7.38;100.00;101853.47;5001910;28;20211;-68
2023/05/01 05:42:24;;;;;;;6.20;3.60;;;;;;;7.36;100.00;101855.94;5004385;28;20560;-67
2023/05/01 05:44:49;;;;;;;6.17;4.17;;;;;;;7.38;100.00;101861.97;5023095;28;20195;-69
2023/05/01 05:47:15;;;;;;;5.57;4.13;;;;;;;7.50;100.00;101844.72;5023469;28;20217;-69
2023/05/01 05:49:40;;;;;;;6.23;4.10;;;;;;;7.63;100.00;101847.06;5008885;28;20679;-68
2023/05/01 05:52:06;;;;;;;8.63;4.23;;;;;;;7.71;100.00;101827.03;5010470;28;20224;-69
2023/05/01 05:54:31;;;;;;;7.53;4.03;;;;;;;7.86;100.00;101805.66;5025461;28;20197;-69
2023/05/01 05:56:57;;;;;;;8.53;4.50;;;;;;;7.97;100.00;101817.19;5021390;28;20197;-68
2023/05/01 05:59:22;;;;;;;8.80;4.70;;;;;;;8.10;100.00;101796.53;5022957;28;20221;-68
2023/05/01 06:01:48;;;;;;;9.27;4.50;;;;;;;8.34;100.00;101804.44;5010065;28;20245;-68
2023/05/01 06:04:14;;;;;;;6.50;3.87;;;;;;;8.33;100.00;101770.41;5024717;28;20186;-68
2023/05/01 06:06:40;;;;;;;7.67;4.17;;;;;;;8.37;100.00;101751.88;5008932;28;20277;-69
2023/05/01 06:09:09;;;;;;;7.67;4.23;;;;;;;8.50;100.00;101750.69;5020409;28;20321;-69
2023/05/01 06:11:35;;;;;;;5.60;4.00;;;;;;;8.33;100.00;101760.19;5020249;28;20970;-69
2023/05/01 06:14:01;;;;;;;6.23;4.07;;;;;;;8.37;100.00;101750.97;5024339;28;20190;-69
2023/05/01 06:16:27;;;;;;;8.03;3.97;;;;;;;8.60;100.00;101738.38;5026340;28;20744;-69
2023/05/01 06:18:52;;;;;;;7.97;4.10;;;;;;;8.90;100.00;101719.19;5010149;28;20289;-70
2023/05/01 06:21:18;;;;;;;5.67;4.00;;;;;;;9.03;100.00;101695.03;5009278;28;20190;-67
2023/05/01 06:23:43;;;;;;;8.90;3.83;;;;;;;9.26;100.00;101678.91;5010892;28;20762;-69
2023/05/01 06:26:22;;;;;;;7.73;4.33;;;;;;;9.25;100.00;101666.91;5013280;28;20192;-69
2023/05/01 06:28:47;;;;;;;7.90;4.60;;;;;;;9.20;100.00;101691.41;5006435;28;20337;-68
2023/05/01 06:31:13;;;;;;;7.03;4.00;;;;;;;9.28;100.00;101670.47;5025071;28;20280;-67
2023/05/01 06:33:44;;;;;;;8.90;4.10;;;;;;;9.41;100.00;101642.00;5007573;28;20221;-68
2023/05/01 06:36:18;;;;;;;7.07;4.20;;;;;;;9.64;100.00;101627.47;5008014;28;20190;-69
2023/05/01 06:38:47;;;;;;;9.20;4.43;;;;;;;9.85;100.00;101592.41;5005212;28;20257;-68
2023/05/01 06:41:15;;;;;;;7.83;4.47;;;;;;;10.04;100.00;101576.88;5009687;28;20205;-68
2023/05/01 06:43:40;;;;;;;11.47;4.47;;;;;;;10.18;100.00;101578.25;5019473;28;20253;-67
2023/05/01 06:46:07;;;;;;;8.13;4.30;;;;;;;10.23;100.00;101580.09;5024369;28;20209;-67
2023/05/01 06:48:32;;;;;;;6.17;4.30;;;;;;;10.35;100.00;101584.75;5024026;28;20606;-68
2023/05/01 06:50:58;;;;;;;5.37;4.00;;;;;;;10.25;100.00;101552.00;5023484;28;20215;-69
2023/05/01 06:53:24;;;;;;;7.30;4.10;;;;;;;10.81;100.00;101560.63;5009063;28;20303;-68
2023/05/01 06:55:49;;;;;;;6.50;4.30;;;;;;;10.93;100.00;101514.84;5023544;28;20198;-68
2023/05/01 06:58:15;;;;;;;8.63;4.17;;;;;;;10.91;100.00;101464.38;5008728;28;20205;-68
2023/05/01 07:00:41;;;;;;;7.37;4.20;;;;;;;11.06;100.00;101444.31;5003220;28;20217;-67
2023/05/01 07:03:06;;;;;;;7.67;4.03;;;;;;;11.06;100.00;101432.34;5026809;28;20889;-68
2023/05/01 07:05:31;;;;;;;7.90;4.07;;;;;;;10.91;100.00;101470.38;5026791;28;20209;-69
2023/05/01 07:07:57;;;;;;;8.70;4.60;;;;;;;11.23;100.00;101472.13;5008267;28;20229;-69
2023/05/01 07:10:22;;;;;;;8.07;4.67;;;;;;;11.55;100.00;101468.72;5022017;28;20253;-68
2023/05/01 07:12:48;;;;;;;7.87;4.63;;;;;;;11.77;100.00;101460.75;5019465;28;20222;-69
2023/05/01 07:15:15;;;;;;;6.30;3.90;;;;;;;11.62;100.00;101410.78;5024118;28;20240;-69
2023/05/01 07:17:40;;;;;;;8.07;4.63;;;;;;;11.82;100.00;101419.78;5024540;28;20198;-68
2023/05/01 07:20:06;;;;;;;6.03;4.00;;;;;;;11.94;100.00;101369.63;5023493;28;20226;-69
2023/05/01 07:22:32;;;;;;;5.53;4.20;;;;;;;11.83;100.00;101370.19;5023300;28;20565;-69
2023/05/01 07:25:00;;;;;;;6.90;4.00;;;;;;;11.98;100.00;101401.38;5023566;28;20198;-66
2023/05/01 07:27:25;;;;;;;5.23;4.20;;;;;;;12.27;100.00;101344.69;5024694;28;20182;-68
2023/05/01 07:29:52;;;;;;;6.00;3.97;;;;;;;12.33;100.00;101331.09;5025447;28;20264;-70
2023/05/01 07:32:18;;;;;;;7.33;4.53;;;;;;;12.40;100.00;101328.66;5029111;28;20720;-68
2023/05/01 07:34:43;;;;;;;5.30;3.87;;;;;;;12.47;100.00;101286.84;5009616;28;20230;-69
2023/05/01 07:37:08;;;;;;;8.53;4.43;;;;;;;12.46;100.00;101284.25;5023169;28;20203;-69
2023/05/01 07:39:34;;;;;;;9.33;4.83;;;;;;;12.82;100.00;101295.22;5004241;28;20610;-69
2023/05/01 07:42:00;;;;;;;7.53;3.83;;;;;;;13.15;100.00;101262.38;5023617;28;20206;-69
2023/05/01 07:44:25;;;;;;;6.83;4.37;;;;;;;13.12;96.00;101231.47;5025316;28;20194;-70
2023/05/01 07:46:51;;;;;;;6.80;4.17;;;;;;;13.51;100.00;101251.75;5013855;28;20631;-70
2023/05/01 07:49:16;;;;;;;6.57;4.10;;;;;;;13.97;94.11;101206.03;5012860;28;20598;-68
2023/05/01 07:51:42;;;;;;;7.53;4.07;;;;;;;13.79;92.51;101190.38;5027017;28;20194;-69
2023/05/01 07:54:08;;;;;;;6.77;3.70;;;;;;;13.91;93.29;101194.81;5010927;28;20199;-70
2023/05/01 07:56:33;;;;;;;8.37;3.70;;;;;;;14.06;92.80;101177.81;5025004;28;20730;-72
2023/05/01 07:58:59;;;;;;;10.83;4.77;;;;;;;14.14;87.00;101160.72;5022628;28;20562;-67
2023/05/01 08:01:24;;;;;;;6.97;3.73;;;;;;;14.11;90.01;101175.28;5029554;28;20606;-66
2023/05/01 08:03:50;;;;;;;8.50;3.83;;;;;;;14.47;92.06;101186.84;5026793;28;20274;-69
2023/05/01 08:06:15;;;;;;;6.17;4.20;;;;;;;14.26;81.87;101132.53;5020432;28;20209;-68
2023/05/01 08:08:41;;;;;;;6.93;3.67;;;;;;;15.06;82.59;101113.34;5022693;28;20269;-66
2023/05/01 08:11:07;;;;;;;8.50;4.13;;;;;;;15.34;76.21;101063.63;5010979;28;20227;-69
2023/05/01 08:13:33;;;;;;;6.23;4.20;;;;;;;15.22;73.28;101054.97;5024847;28;20230;-68
2023/05/01 08:16:02;;;;;;;6.33;3.70;;;;;;;16.02;71.50;101048.31;5022820;28;20199;-69
2023/05/01 08:18:29;;;;;;;5.03;3.90;;;;;;;15.90;70.16;101056.91;5026774;28;20194;-67
2023/05/01 08:20:54;;;;;;;6.00;3.87;;;;;;;15.93;66.77;101074.97;4996917;28;20222;-67
2023/05/01 08:23:20;;;;;;;5.83;3.67;;;;;;;15.50;67.53;101152.31;5027579;28;20245;-68
2023/05/01 08:25:45;;;;;;;5.57;4.10;;;;;;;15.95;70.66;101189.53;5019705;28;20305;-69
2023/05/01 08:28:13;;;;;;;7.33;3.97;;;;;;;16.36;67.09;101163.75;5016487;28;20620;-68
2023/05/01 08:30:38;;;;;;;8.33;4.17;;;;;;;16.19;66.12;101161.16;5003506;28;21005;-70
2023/05/01 08:33:04;;;;;;;6.80;3.87;;;;;;;16.04;67.45;101192.13;5009501;28;20233;-68
2023/05/01 08:35:29;;;;;;;6.13;3.70;;;;;;;16.68;59.07;101142.28;5023424;28;20235;-69
2023/05/01 08:37:55;;;;;;;6.40;3.80;;;;;;;17.00;58.58;101166.34;5024285;28;20213;-70
2023/05/01 08:40:22;;;;;;;4.73;3.00;;;;;;;17.03;51.45;101165.47;5019917;28;20300;-66
2023/05/01 08:42:48;;;;;;;7.10;2.90;;;;;;;16.89;48.87;101349.22;5021615;28;20641;-68
2023/05/01 08:45:15;;;;;;;4.53;3.00;;;;;;;16.82;50.90;101388.88;5021006;28;20201;-67
2023/05/01 08:47:42;;;;;;;3.67;2.57;;;;;;;17.43;48.93;101387.25;5028917;28;20191;-66
2023/05/01 08:50:12;;;;;;;5.40;2.87;;;;;;;17.38;47.02;101395.00;5007147;28;20305;-67
2023/05/01 08:52:42;;;;;;;6.83;2.87;;;;;;;17.69;47.62;101407.09;5019839;28;20214;-68
2023/05/01 08:55:15;;;;;;;6.40;3.30;;;;;;;17.07;47.55;101406.19;5023269;28;20290;-67
2023/05/01 08:57:45;;;;;;;7.03;3.30;;;;;;;16.99;47.04;101400.13;5018833;28;20186;-68
2023/05/01 09:00:17;;;;;;;5.63;2.80;;;;;;;17.10;46.66;101392.38;5009104;28;20276;-66
2023/05/01 09:02:44;;;;;;;4.60;2.63;;;;;;;17.82;48.17;101423.53;5023979;28;20196;-67
2023/05/01 09:05:12;;;;;;;6.30;2.87;;;;;;;17.00;46.52;101401.84;5007039;28;20688;-67
2023/05/01 09:07:37;;;;;;;4.53;2.80;;;;;;;17.56;47.19;101409.72;5025429;28;20222;-67
2023/05/01 09:10:03;;;;;;;6.67;3.33;;;;;;;17.66;46.23;101396.78;5022324;28;20788;-65
2023/05/01 09:12:34;;;;;;;5.50;2.40;;;;;;;17.28;45.47;101405.34;5020673;28;20997;-67
2023/05/01 09:15:02;;;;;;;5.07;2.73;;;;;;;18.09;45.51;101401.00;5015073;28;20199;-66
2023/05/01 09:17:30;;;;;;;4.40;2.60;;;;;;;17.38;44.47;101394.13;5020732;28;20190;-68
2023/05/01 09:19:58;;;;;;;4.63;2.37;;;;;;;17.58;44.48;101395.91;5021942;28;20891;-68
2023/05/01 09:22:24;;;;;;;3.67;2.40;;;;;;;17.10;43.89;101393.25;5025160;28;20202;-67
2023/05/01 09:24:49;;;;;;;6.17;2.70;;;;;;;17.01;44.21;101392.34;5020090;28;20250;-67
2023/05/01 09:27:15;;;;;;;5.23;2.67;;;;;;;17.28;44.56;101400.16;5019106;28;20277;-66
2023/05/01 09:29:47;;;;;;;5.07;2.83;;;;;;;17.83;45.26;101422.66;5019750;28;20215;-66
2023/05/01 09:32:15;;;;;;;5.33;2.53;;;;;;;17.50;44.27;101389.00;5027597;28;20254;-66
2023/05/01 09:34:42;;;;;;;5.50;2.57;;;;;;;17.62;44.82;101410.59;5026190;28;20735;-67
2023/05/01 09:37:11;;;;;;;5.47;3.23;;;;;;;17.66;43.50;101394.19;5025523;28;20190;-68
2023/05/01 09:39:37;;;;;;;5.47;2.93;;;;;;;17.82;43.46;101385.50;5021549;28;20214;-67
2023/05/01 09:42:02;;;;;;;4.63;2.63;;;;;;;18.27;42.79;101372.44;5020035;28;20206;-67
2023/05/01 09:44:27;;;;;;;4.77;2.67;;;;;;;17.48;42.87;101382.94;5022074;28;20818;-67
2023/05/01 09:46:53;;;;;;;6.00;2.87;;;;;;;17.53;42.92;101388.97;5027503;28;20661;-67
2023/05/01 09:49:19;;;;;;;4.13;2.70;;;;;;;17.96;44.15;101412.28;5012783;28;20651;-66
2023/05/01 09:51:44;;;;;;;4.60;2.50;;;;;;;18.00;43.08;101385.47;5003094;28;20183;-67
2023/05/01 09:54:19;;;;;;;5.47;2.73;;;;;;;18.43;41.84;101366.34;5023737;28;20584;-67
2023/05/01 09:56:47;;;;;;;4.33;2.50;;;;;;;17.98;42.06;101391.53;5016390;28;20197;-65
2023/05/01 09:59:17;;;;;;;5.17;2.80;;;;;;;18.12;42.66;101402.75;5022557;28;20214;-67
2023/05/01 10:01:45;;;;;;;5.97;3.10;;;;;;;18.31;41.87;101374.16;5019132;28;20194;-66
2023/05/01 10:04:11;;;;;;;5.30;2.70;;;;;;;18.50;41.84;101367.19;5023518;28;20214;-67
2023/05/01 10:06:38;;;;;;;6.30;2.87;;;;;;;18.61;43.33;101393.97;5023854;28;20194;-67
2023/05/01 10:09:06;;;;;;;5.93;2.73;;;;;;;18.65;40.99;101346.38;5006579;28;20222;-67
2023/05/01 10:11:52;;;;;;;4.10;2.20;;;;;;;19.56;41.84;101366.53;5018971;28;20198;-67
2023/05/01 10:14:19;;;;;;;4.17;2.53;;;;;;;19.58;40.88;101356.13;5020036;28;20190;-67
2023/05/01 10:16:45;;;;;;;5.33;2.43;;;;;;;19.18;40.54;101358.16;5022995;28;20198;-67
2023/05/01 10:19:11;;;;;;;5.37;2.37;;;;;;;19.53;39.37;101342.31;5026633;28;20226;-66
2023/05/01 10:21:36;;;;;;;4.43;2.57;;;;;;;20.43;39.37;101342.22;5018199;28;20208;-69
2023/05/01 10:24:02;;;;;;;3.77;2.73;;;;;;;20.33;37.43;101337.13;5016403;28;20298;-68
2023/05/01 10:26:28;;;;;;;4.80;2.63;;;;;;;20.01;38.15;101350.47;5025617;28;20546;-69
2023/05/01 10:28:57;;;;;;;4.33;2.50;;;;;;;20.27;36.95;101327.66;5019876;28;20191;-68
2023/05/01 10:31:24;;;;;;;5.93;2.73;;;;;;;20.31;35.71;101316.31;5023574;28;20206;-68
2023/05/01 10:33:50;;;;;;;4.13;2.43;;;;;;;20.25;36.92;101349.34;5024936;28;20217;-67
2023/05/01 10:36:24;;;;;;;4.33;2.70;;;;;;;19.81;36.78;101348.97;5024815;28;20248;-69
2023/05/01 10:38:50;;;;;;;8.33;2.97;;;;;;;19.75;36.31;101326.50;5021181;28;20210;-68
2023/05/01 10:41:16;;;;;;;5.53;2.90;;;;;;;19.95;37.13;101339.28;5017550;28;20223;-67
2023/05/01 10:43:42;;;;;;;5.20;2.83;;;;;;;20.06;36.99;101347.81;5021733;28;20198;-70
2023/05/01 10:46:19;;;;;;;9.10;3.50;;;;;;;19.54;37.67;101346.63;5010127;28;21067;-69
2023/05/01 10:48:45;;;;;;;6.60;2.90;;;;;;;19.35;38.24;101347.66;5013942;28;20201;-70
2023/05/01 10:51:10;;;;;;;4.97;2.83;;;;;;;19.89;36.92;101324.59;5022584;28;20206;-70
2023/05/01 10:53:41;;;;;;;5.97;2.60;;;;;;;20.75;37.21;101329.63;5019226;28;20236;-69
2023/05/01 10:56:26;;;;;;;5.27;2.90;;;;;;;19.97;36.01;101316.72;5017866;28;20203;-69
2023/05/01 10:58:52;;;;;;;5.37;3.10;;;;;;;20.08;36.54;101328.75;5000667;28;20269;-70
2023/05/01 11:01:46;;;;;;;3.83;2.27;;;;;;;20.63;35.75;101297.69;5024497;28;20195;-69
2023/05/01 11:04:18;;;;;;;4.73;3.07;;;;;;;21.19;35.82;101295.94;5008182;28;20221;-70
2023/05/01 11:07:09;;;;;;;6.70;2.67;;;;;;;21.27;35.42;101299.28;5026301;28;20589;-69
2023/05/01 11:09:53;;;;;;;6.53;3.10;;;;;;;20.61;36.00;101313.34;5002041;28;21032;-69
2023/05/01 11:12:44;;;;;;;5.00;3.20;;;;;;;20.97;34.75;101284.19;5007905;28;20210;-69
2023/05/01 11:15:09;;;;;;;5.07;2.97;;;;;;;20.89;35.61;101312.06;5003184;28;20205;-69
2023/05/01 11:17:44;;;;;;;4.30;2.87;;;;;;;21.22;35.08;101285.50;5003769;28;20211;-69
2023/05/01 11:20:11;;;;;;;5.93;3.00;;;;;;;20.81;35.56;101290.47;5021740;28;20214;-69
2023/05/01 11:22:39;;;;;;;6.50;2.90;;;;;;;21.46;34.78;101294.63;5022281;28;20238;-69
2023/05/01 11:25:19;;;;;;;4.83;3.07;;;;;;;20.23;35.01;101281.75;5026080;28;20279;-69
2023/05/01 11:27:48;;;;;;;4.70;3.07;;;;;;;20.91;35.92;101306.84;5022670;28;20191;-70